createdAt,value
2019-01-20T00:00:07.953Z,82.62
2019-01-20T00:02:37.168Z,82.65
2019-01-20T00:05:08.380Z,82.64
2019-01-20T00:07:37.540Z,82.73
2019-01-20T00:10:08.634Z,82.47
2019-01-20T00:12:37.621Z,82.47
2019-01-20T00:15:07.333Z,82.54
2019-01-20T00:17:36.487Z,82.43
2019-01-20T00:20:08.264Z,82.55
2019-01-20T00:22:37.421Z,82.43
2019-01-20T00:25:06.950Z,82.29
2019-01-20T00:27:36.089Z,82.47
2019-01-20T00:30:06.743Z,82.19
2019-01-20T00:32:35.947Z,82.23
2019-01-20T00:35:05.838Z,82.44
2019-01-20T00:37:34.856Z,82.27
2019-01-20T00:40:04.253Z,82.17
2019-01-20T00:42:33.450Z,82.30
2019-01-20T00:45:03.245Z,82.49
2019-01-20T00:47:32.577Z,82.26
2019-01-20T00:50:01.735Z,82.36
2019-01-20T00:52:31.572Z,82.09
2019-01-20T00:55:01.262Z,82.03
2019-01-20T00:57:30.494Z,82.08
2019-01-20T00:59:59.606Z,82.42
2019-01-20T01:02:28.957Z,82.24
2019-01-20T01:04:58.513Z,82.30
2019-01-20T01:07:27.817Z,82.05
2019-01-20T01:09:56.998Z,82.18
2019-01-20T01:12:26.178Z,82.13
2019-01-20T01:14:55.294Z,82.13
2019-01-20T01:17:24.387Z,82.50
2019-01-20T01:19:53.498Z,82.66
2019-01-20T01:22:22.680Z,82.48
2019-01-20T01:24:51.852Z,82.44
2019-01-20T01:27:20.974Z,82.42
2019-01-20T01:29:51.030Z,82.19
2019-01-20T01:32:20.094Z,82.61
2019-01-20T01:34:49.140Z,82.38
2019-01-20T01:37:18.230Z,82.34
2019-01-20T01:39:47.336Z,82.33
2019-01-20T01:42:16.441Z,82.44
2019-01-20T01:44:45.567Z,82.30
2019-01-20T01:47:15.165Z,82.28
2019-01-20T01:49:44.340Z,81.92
2019-01-20T01:52:13.858Z,82.05
2019-01-20T01:54:43.682Z,81.83
2019-01-20T01:57:12.838Z,82.15
2019-01-20T01:59:41.940Z,82.22
2019-01-20T02:02:11.034Z,82.02
2019-01-20T02:04:40.161Z,82.17
2019-01-20T02:07:09.383Z,81.91
2019-01-20T02:09:39.240Z,82.05
2019-01-20T02:12:08.430Z,82.05
2019-01-20T02:14:37.540Z,82.11
2019-01-20T02:17:06.636Z,82.03
2019-01-20T02:19:37.456Z,82.53
2019-01-20T02:22:08.128Z,82.36
2019-01-20T02:24:37.197Z,82.24
2019-01-20T02:27:06.278Z,82.36
2019-01-20T02:29:35.414Z,82.72
2019-01-20T02:32:04.780Z,82.55
2019-01-20T02:34:33.784Z,82.47
2019-01-20T02:37:02.858Z,82.59
2019-01-20T02:39:31.900Z,82.59
2019-01-20T02:42:01.074Z,82.34
2019-01-20T02:44:30.113Z,82.59
2019-01-20T02:46:59.172Z,82.38
2019-01-20T02:49:28.651Z,82.41
2019-01-20T02:51:57.734Z,82.57
2019-01-20T02:54:26.877Z,82.25
2019-01-20T02:56:56.032Z,82.59
2019-01-20T02:59:25.589Z,82.28
2019-01-20T03:01:54.672Z,82.45
2019-01-20T03:04:25.548Z,82.17
2019-01-20T03:06:52.981Z,82.50
2019-01-20T03:09:22.042Z,82.69
2019-01-20T03:11:51.199Z,82.42
2019-01-20T03:14:20.301Z,82.54
2019-01-20T03:16:49.461Z,82.48
2019-01-20T03:19:18.650Z,82.38
2019-01-20T03:21:47.828Z,82.36
2019-01-20T03:24:16.839Z,82.56
2019-01-20T03:26:45.907Z,82.22
2019-01-20T03:29:15.013Z,82.49
2019-01-20T03:31:44.073Z,82.45
2019-01-20T03:34:13.152Z,82.45
2019-01-20T03:36:42.315Z,82.84
2019-01-20T03:39:11.610Z,82.75
2019-01-20T03:41:40.970Z,82.69
2019-01-20T03:44:10.042Z,82.44
2019-01-20T03:46:39.100Z,82.51
2019-01-20T03:49:08.163Z,82.41
2019-01-20T03:51:37.278Z,82.47
2019-01-20T03:54:06.493Z,82.34
2019-01-20T03:56:35.676Z,82.33
2019-01-20T03:59:04.922Z,82.29
2019-01-20T04:01:34.668Z,82.19
2019-01-20T04:04:03.849Z,82.60
2019-01-20T04:06:32.890Z,82.45
2019-01-20T04:09:01.997Z,82.63
2019-01-20T04:11:31.133Z,82.26
2019-01-20T04:14:00.415Z,82.20
2019-01-20T04:16:29.526Z,82.55
2019-01-20T04:18:58.644Z,82.55
2019-01-20T04:21:27.696Z,82.72
2019-01-20T04:23:56.846Z,82.79
2019-01-20T04:26:25.882Z,82.91
2019-01-20T04:28:55.067Z,82.92
2019-01-20T04:31:24.193Z,82.57
2019-01-20T04:33:53.430Z,82.98
2019-01-20T04:36:22.831Z,82.88
2019-01-20T04:38:51.913Z,82.68
2019-01-20T04:41:20.993Z,82.86
2019-01-20T04:43:50.049Z,82.68
2019-01-20T04:46:19.191Z,82.95
2019-01-20T04:48:48.234Z,82.63
2019-01-20T04:51:17.349Z,82.84
2019-01-20T04:53:46.527Z,82.93
2019-01-20T04:56:15.674Z,82.96
2019-01-20T04:58:45.248Z,83.06
2019-01-20T05:01:14.411Z,82.89
2019-01-20T05:03:43.478Z,82.99
2019-01-20T05:06:12.601Z,82.98
2019-01-20T05:08:44.502Z,82.99
2019-01-20T05:11:13.598Z,83.10
2019-01-20T05:13:42.796Z,83.48
2019-01-20T05:16:11.875Z,83.02
2019-01-20T05:18:41.066Z,83.01
2019-01-20T05:21:10.938Z,83.39
2019-01-20T05:23:40.047Z,83.29
2019-01-20T05:26:09.212Z,83.14
2019-01-20T05:28:38.362Z,82.81
2019-01-20T05:31:07.521Z,83.23
2019-01-20T05:33:36.697Z,83.12
2019-01-20T05:36:05.996Z,83.34
2019-01-20T05:38:35.179Z,83.09
2019-01-20T05:41:04.322Z,83.30
2019-01-20T05:43:33.383Z,83.42
2019-01-20T05:46:02.509Z,83.37
2019-01-20T05:48:32.864Z,83.68
2019-01-20T05:51:00.837Z,83.27
2019-01-20T05:53:30.142Z,83.42
2019-01-20T05:55:59.867Z,83.19
2019-01-20T05:58:28.938Z,82.99
2019-01-20T06:00:58.055Z,83.34
2019-01-20T06:03:27.219Z,83.27
2019-01-20T06:05:56.439Z,83.20
2019-01-20T06:08:25.515Z,83.35
2019-01-20T06:10:54.612Z,83.45
2019-01-20T06:13:23.736Z,83.37
2019-01-20T06:15:52.789Z,83.43
2019-01-20T06:18:21.933Z,83.17
2019-01-20T06:20:51.063Z,83.61
2019-01-20T06:23:21.022Z,83.19
2019-01-20T06:25:51.662Z,83.18
2019-01-20T06:43:09.794Z,83.18
2019-01-20T06:45:39.082Z,83.01
2019-01-20T06:48:08.204Z,82.96
2019-01-20T06:50:37.485Z,83.05
2019-01-20T06:53:06.618Z,83.22
2019-01-20T06:55:35.741Z,83.04
2019-01-20T06:58:05.071Z,83.10
2019-01-20T07:00:34.176Z,83.17
2019-01-20T07:03:03.280Z,83.28
2019-01-20T07:05:32.426Z,83.32
2019-01-20T07:08:01.591Z,83.46
2019-01-20T07:10:30.839Z,83.50
2019-01-20T07:12:59.900Z,83.02
2019-01-20T07:15:29.062Z,83.08
2019-01-20T07:17:58.141Z,83.14
2019-01-20T07:20:27.250Z,82.98
2019-01-20T07:22:56.490Z,82.90
2019-01-20T07:25:25.659Z,82.90
2019-01-20T07:27:54.767Z,83.16
2019-01-20T07:30:24.431Z,83.13
2019-01-20T07:32:53.554Z,82.77
2019-01-20T07:35:22.905Z,83.02
2019-01-20T07:37:52.334Z,82.80
2019-01-20T07:40:23.125Z,82.99
2019-01-20T07:42:52.230Z,82.71
2019-01-20T07:45:21.412Z,82.95
2019-01-20T07:47:50.662Z,82.99
2019-01-20T07:50:21.576Z,83.28
2019-01-20T07:52:50.734Z,82.89
2019-01-20T07:55:20.053Z,82.93
2019-01-20T07:57:49.223Z,82.93
2019-01-20T08:00:21.454Z,83.08
2019-01-20T08:02:50.698Z,83.30
2019-01-20T08:05:20.087Z,83.23
2019-01-20T08:07:49.495Z,82.89
2019-01-20T08:10:23.609Z,82.92
2019-01-20T08:12:52.729Z,82.84
2019-01-20T08:15:21.923Z,83.02
2019-01-20T08:17:51.144Z,82.89
2019-01-20T08:20:20.654Z,83.09
2019-01-20T08:22:49.956Z,83.05
2019-01-20T08:25:19.208Z,83.05
2019-01-20T08:27:48.429Z,82.85
2019-01-20T08:30:19.452Z,83.16
2019-01-20T08:32:48.661Z,83.29
2019-01-20T08:35:17.836Z,83.31
2019-01-20T08:37:47.140Z,82.96
2019-01-20T08:40:21.996Z,83.37
2019-01-20T08:42:51.110Z,83.28
2019-01-20T08:45:29.360Z,83.11
2019-01-20T08:48:03.787Z,82.79
2019-01-20T08:50:32.964Z,82.84
2019-01-20T08:53:02.083Z,82.65
2019-01-20T08:55:31.280Z,82.64
2019-01-20T08:58:00.485Z,82.62
2019-01-20T09:00:29.578Z,82.99
2019-01-20T09:02:58.680Z,83.02
2019-01-20T09:05:27.801Z,82.83
2019-01-20T09:07:56.882Z,82.76
2019-01-20T09:10:27.711Z,82.85
2019-01-20T09:12:59.759Z,82.88
2019-01-20T09:15:29.070Z,82.72
2019-01-20T09:17:58.786Z,82.72
2019-01-20T09:20:27.981Z,82.81
2019-01-20T09:22:57.102Z,82.90
2019-01-20T09:25:26.268Z,82.72
2019-01-20T09:27:55.393Z,82.88
2019-01-20T09:30:24.581Z,82.92
2019-01-20T09:32:53.778Z,82.90
2019-01-20T09:35:23.782Z,82.95
2019-01-20T09:37:52.982Z,82.74
2019-01-20T09:40:22.183Z,82.66
2019-01-20T09:42:51.682Z,82.81
2019-01-20T09:45:26.847Z,82.72
2019-01-20T09:47:57.459Z,83.03
2019-01-20T09:50:26.576Z,82.96
2019-01-20T09:52:55.952Z,82.75
2019-01-20T09:55:26.576Z,82.72
2019-01-20T09:57:55.950Z,82.77
2019-01-20T10:00:26.931Z,82.58
2019-01-20T10:02:56.669Z,82.78
2019-01-20T10:05:26.438Z,82.98
2019-01-20T10:07:55.738Z,82.94
2019-01-20T10:10:24.811Z,82.61
2019-01-20T10:12:53.931Z,82.83
2019-01-20T10:15:26.916Z,82.75
2019-01-20T10:17:56.108Z,82.72
2019-01-20T10:20:28.275Z,82.65
2019-01-20T10:22:57.321Z,82.62
2019-01-20T10:25:26.479Z,82.71
2019-01-20T10:27:55.709Z,82.77
2019-01-20T10:30:27.252Z,82.49
2019-01-20T10:32:56.421Z,82.63
2019-01-20T10:35:29.957Z,82.66
2019-01-20T10:38:00.305Z,82.50
2019-01-20T10:40:32.296Z,82.62
2019-01-20T10:43:00.375Z,82.83
2019-01-20T10:45:29.481Z,82.30
2019-01-20T10:47:58.539Z,82.32
2019-01-20T10:50:27.861Z,82.33
2019-01-20T10:52:57.363Z,82.18
2019-01-20T10:55:26.431Z,82.24
2019-01-20T10:57:55.589Z,82.28
2019-01-20T11:00:27.325Z,82.02
2019-01-20T11:02:56.792Z,82.00
2019-01-20T11:05:30.342Z,81.94
2019-01-20T11:07:55.144Z,81.96
2019-01-20T11:10:25.564Z,81.95
2019-01-20T11:12:55.687Z,81.81
2019-01-20T11:15:24.797Z,81.81
2019-01-20T11:17:53.995Z,81.82
2019-01-20T11:20:23.441Z,81.65
2019-01-20T11:22:52.623Z,81.56
2019-01-20T11:25:26.631Z,81.61
2019-01-20T11:27:55.761Z,81.51
2019-01-20T11:30:24.955Z,81.31
2019-01-20T11:32:54.097Z,81.21
2019-01-20T11:35:23.975Z,81.35
2019-01-20T11:37:53.572Z,81.23
2019-01-20T11:40:25.299Z,81.31
2019-01-20T11:42:58.272Z,81.23
2019-01-20T11:45:34.593Z,81.22
2019-01-20T11:48:04.744Z,81.18
2019-01-20T11:50:35.365Z,81.14
2019-01-20T11:53:04.994Z,80.85
2019-01-20T11:55:34.484Z,81.05
2019-01-20T11:58:03.682Z,81.14
2019-01-20T12:00:35.853Z,80.98
2019-01-20T12:03:05.615Z,81.02
2019-01-20T12:05:36.243Z,80.83
2019-01-20T12:08:05.553Z,80.89
2019-01-20T12:10:35.946Z,80.91
2019-01-20T12:13:08.472Z,80.77
2019-01-20T12:15:39.375Z,80.97
2019-01-20T12:18:08.892Z,80.80
2019-01-20T12:20:41.000Z,80.66
2019-01-20T12:23:10.862Z,80.61
2019-01-20T12:25:40.270Z,80.65
2019-01-20T12:28:09.653Z,80.58
2019-01-20T12:30:39.848Z,80.43
2019-01-20T12:33:14.014Z,80.52
2019-01-20T12:35:43.104Z,80.45
2019-01-20T12:38:12.316Z,80.36
2019-01-20T12:40:44.419Z,80.12
2019-01-20T12:43:13.659Z,80.15
2019-01-20T12:45:42.950Z,80.11
2019-01-20T12:48:13.274Z,80.01
2019-01-20T12:50:43.005Z,80.19
2019-01-20T12:53:12.164Z,80.20
2019-01-20T12:55:41.851Z,80.29
2019-01-20T12:58:11.096Z,80.52
2019-01-20T13:00:40.258Z,80.52
2019-01-20T13:03:09.675Z,80.49
2019-01-20T13:05:40.030Z,80.23
2019-01-20T13:08:09.732Z,80.26
2019-01-20T13:10:39.737Z,80.22
2019-01-20T13:13:10.231Z,80.10
2019-01-20T13:15:43.356Z,80.12
2019-01-20T13:18:13.001Z,79.87
2019-01-20T13:20:43.775Z,79.90
2019-01-20T13:23:13.993Z,79.68
2019-01-20T13:25:43.714Z,79.68
2019-01-20T13:28:13.192Z,79.52
2019-01-20T13:30:44.389Z,79.25
2019-01-20T13:33:13.772Z,79.10
2019-01-20T13:35:42.973Z,78.86
2019-01-20T13:38:15.654Z,78.87
2019-01-20T13:40:58.861Z,78.50
2019-01-20T13:43:28.433Z,78.33
2019-01-20T13:45:57.795Z,77.87
2019-01-20T13:48:26.871Z,78.27
2019-01-20T13:50:56.025Z,78.36
2019-01-20T13:53:25.271Z,78.30
2019-01-20T13:56:01.039Z,78.05
2019-01-20T13:58:24.845Z,78.12
2019-01-20T14:00:53.880Z,78.11
2019-01-20T14:03:23.081Z,78.01
2019-01-20T14:05:52.317Z,78.18
2019-01-20T14:08:21.370Z,78.25
2019-01-20T14:10:50.506Z,78.12
2019-01-20T14:15:55.116Z,77.90
2019-01-20T14:18:24.369Z,77.97
2019-01-20T14:20:53.676Z,77.96
2019-01-20T14:23:22.830Z,77.93
2019-01-20T14:25:53.847Z,77.92
2019-01-20T14:28:23.389Z,78.09
2019-01-20T14:30:52.575Z,78.12
2019-01-20T14:33:22.689Z,78.18
2019-01-20T14:35:53.134Z,77.89
2019-01-20T14:38:22.503Z,77.89
2019-01-20T14:40:51.700Z,77.92
2019-01-20T14:43:22.232Z,77.85
2019-01-20T14:45:51.592Z,77.77
2019-01-20T14:48:21.208Z,77.85
2019-01-20T14:50:50.401Z,77.80
2019-01-20T14:53:19.543Z,77.94
2019-01-20T14:55:50.339Z,77.83
2019-01-20T14:58:21.730Z,77.73
2019-01-20T15:00:50.928Z,77.83
2019-01-20T15:03:20.234Z,77.70
2019-01-20T15:05:49.511Z,77.82
2019-01-20T15:08:19.897Z,77.78
2019-01-20T15:10:49.196Z,77.65
2019-01-20T15:13:18.397Z,77.51
2019-01-20T15:15:48.615Z,77.80
2019-01-20T15:18:18.024Z,77.71
2019-01-20T15:20:47.346Z,77.84
2019-01-20T15:23:22.591Z,77.60
2019-01-20T15:25:51.994Z,77.68
2019-01-20T15:28:21.356Z,77.57
2019-01-20T15:30:50.700Z,77.76
2019-01-20T15:33:20.008Z,77.84
2019-01-20T15:35:49.301Z,77.87
2019-01-20T15:38:18.722Z,77.98
2019-01-20T15:40:48.085Z,78.13
2019-01-20T15:43:18.838Z,78.34
2019-01-20T15:45:48.128Z,78.37
2019-01-20T15:48:17.448Z,78.09
2019-01-20T15:50:46.760Z,78.07
2019-01-20T15:53:16.207Z,77.79
2019-01-20T15:55:45.713Z,77.76
2019-01-20T15:58:15.557Z,77.65
2019-01-20T16:00:45.089Z,77.83
2019-01-20T16:03:14.439Z,77.78
2019-01-20T16:05:43.870Z,78.00
2019-01-20T16:08:13.262Z,78.06
2019-01-20T16:10:43.884Z,77.87
2019-01-20T16:13:13.583Z,77.79
2019-01-20T16:15:43.080Z,77.92
2019-01-20T16:18:14.296Z,77.87
2019-01-20T16:20:42.630Z,77.73
2019-01-20T16:23:11.935Z,77.68
2019-01-20T16:25:41.237Z,77.85
2019-01-20T16:28:12.573Z,77.79
2019-01-20T16:30:44.227Z,77.75
2019-01-20T16:33:14.486Z,77.58
2019-01-20T16:35:43.759Z,77.67
2019-01-20T16:38:13.449Z,77.76
2019-01-20T16:40:43.786Z,77.78
2019-01-20T16:43:14.008Z,77.84
2019-01-20T16:45:46.086Z,77.85
2019-01-20T16:48:15.531Z,78.04
2019-01-20T16:50:44.808Z,78.04
2019-01-20T16:53:14.139Z,77.96
2019-01-20T16:55:43.538Z,78.15
2019-01-20T16:58:13.077Z,78.02
2019-01-20T17:00:44.319Z,77.66
2019-01-20T17:03:13.633Z,78.09
2019-01-20T17:05:43.735Z,77.97
2019-01-20T17:08:13.162Z,77.83
2019-01-20T17:10:43.793Z,77.93
2019-01-20T17:13:13.511Z,77.99
2019-01-20T17:15:44.837Z,78.12
2019-01-20T17:18:16.082Z,78.45
2019-01-20T17:20:45.616Z,78.31
2019-01-20T17:23:14.976Z,78.30
2019-01-20T17:25:47.430Z,78.42
2019-01-20T17:28:16.837Z,78.45
2019-01-20T17:30:46.384Z,78.51
2019-01-20T17:33:16.050Z,78.50
2019-01-20T17:35:46.884Z,78.47
2019-01-20T17:38:16.216Z,78.54
2019-01-20T17:40:46.158Z,78.64
2019-01-20T17:43:15.402Z,78.54
2019-01-20T17:45:48.641Z,78.67
2019-01-20T17:48:15.169Z,78.65
2019-01-20T17:50:45.397Z,78.71
2019-01-20T17:53:15.777Z,78.64
2019-01-20T17:55:45.174Z,78.74
2019-01-20T17:58:14.484Z,78.87
2019-01-20T18:00:47.300Z,78.79
2019-01-20T18:03:16.810Z,78.68
2019-01-20T18:05:46.106Z,78.63
2019-01-20T18:08:15.325Z,78.69
2019-01-20T18:10:44.713Z,78.55
2019-01-20T18:13:14.095Z,78.29
2019-01-20T18:15:43.439Z,78.47
2019-01-20T18:18:12.773Z,78.06
2019-01-20T18:20:42.108Z,78.29
2019-01-20T18:23:11.364Z,78.11
2019-01-20T18:25:40.645Z,78.24
2019-01-20T18:28:09.929Z,78.12
2019-01-20T18:30:39.134Z,78.04
2019-01-20T18:33:08.473Z,77.92
2019-01-20T18:35:37.582Z,78.01
2019-01-20T18:38:07.828Z,78.08
2019-01-20T18:40:37.110Z,77.80
2019-01-20T18:43:07.614Z,77.80
2019-01-20T18:45:38.247Z,77.47
2019-01-20T18:48:07.502Z,77.74
2019-01-20T18:50:38.108Z,77.67
2019-01-20T18:53:07.439Z,77.76
2019-01-20T18:55:42.238Z,77.75
2019-01-20T18:58:11.435Z,77.77
2019-01-20T19:00:46.002Z,77.64
2019-01-20T19:03:15.267Z,77.47
2019-01-20T19:05:44.555Z,77.42
2019-01-20T19:08:14.577Z,77.27
2019-01-20T19:10:44.489Z,77.60
2019-01-20T19:13:13.791Z,77.73
2019-01-20T19:15:44.134Z,77.73
2019-01-20T19:18:18.842Z,77.67
2019-01-20T19:20:42.711Z,77.80
2019-01-20T19:23:12.029Z,77.88
2019-01-20T19:25:42.644Z,77.90
2019-01-20T19:28:12.197Z,77.74
2019-01-20T19:30:46.432Z,77.83
2019-01-20T19:33:15.763Z,78.12
2019-01-20T19:35:45.074Z,77.96
2019-01-20T19:38:14.300Z,78.35
2019-01-20T19:40:44.657Z,78.50
2019-01-20T19:43:13.970Z,78.58
2019-01-20T19:45:46.839Z,78.43
2019-01-20T19:48:20.181Z,78.71
2019-01-20T19:50:45.558Z,78.54
2019-01-20T19:53:14.828Z,78.72
2019-01-20T19:55:44.412Z,78.92
2019-01-20T19:58:17.998Z,79.07
2019-01-20T20:00:47.603Z,78.84
2019-01-20T20:03:16.796Z,79.20
2019-01-20T20:05:46.043Z,79.29
2019-01-20T20:08:15.414Z,78.98
2019-01-20T20:10:44.690Z,79.29
2019-01-20T20:13:13.891Z,79.17
2019-01-20T20:15:43.167Z,79.61
2019-01-20T20:18:12.448Z,79.55
2019-01-20T20:20:41.789Z,79.47
2019-01-20T20:23:11.105Z,79.66
2019-01-20T20:25:40.333Z,79.12
2019-01-20T20:28:09.641Z,79.07
2019-01-20T20:30:39.235Z,79.13
2019-01-20T20:33:10.178Z,79.17
2019-01-20T20:35:39.640Z,78.82
2019-01-20T20:38:09.083Z,79.17
2019-01-20T20:40:38.332Z,78.92
2019-01-20T20:43:07.812Z,79.08
2019-01-20T20:45:37.171Z,79.08
2019-01-20T20:48:06.451Z,79.09
2019-01-20T20:50:35.995Z,79.21
2019-01-20T20:53:05.520Z,79.30
2019-01-20T20:55:34.763Z,79.28
2019-01-20T20:58:04.097Z,79.44
2019-01-20T21:00:38.349Z,79.38
2019-01-20T21:03:11.239Z,79.77
2019-01-20T21:05:41.275Z,79.38
2019-01-20T21:08:10.462Z,79.20
2019-01-20T21:10:39.650Z,79.30
2019-01-20T21:13:08.933Z,79.66
2019-01-20T21:15:38.212Z,79.49
2019-01-20T21:18:07.619Z,79.85
2019-01-20T21:20:36.825Z,79.58
2019-01-20T21:23:12.156Z,79.44
2019-01-20T21:25:35.384Z,79.49
2019-01-20T21:28:05.788Z,79.20
2019-01-20T21:30:35.087Z,79.16
2019-01-20T21:33:04.370Z,79.24
2019-01-20T21:35:33.604Z,79.16
2019-01-20T21:38:06.866Z,79.08
2019-01-20T21:40:33.198Z,78.76
2019-01-20T21:43:02.538Z,79.27
2019-01-20T21:45:31.851Z,79.29
2019-01-20T21:48:02.604Z,79.60
2019-01-20T21:50:32.469Z,79.48
2019-01-20T21:53:02.704Z,79.57
2019-01-20T21:55:32.561Z,79.44
2019-01-20T21:58:01.743Z,79.15
2019-01-20T22:00:33.639Z,79.19
2019-01-20T22:03:02.982Z,78.91
2019-01-20T22:05:32.205Z,78.80
2019-01-20T22:08:02.278Z,78.92
2019-01-20T22:10:31.459Z,79.35
2019-01-20T22:13:02.074Z,79.50
2019-01-20T22:15:31.233Z,79.29
2019-01-20T22:18:04.742Z,79.21
2019-01-20T22:20:34.754Z,79.14
2019-01-20T22:23:04.028Z,79.20
2019-01-20T22:25:33.263Z,79.00
2019-01-20T22:28:03.169Z,78.75
2019-01-20T22:30:32.304Z,78.55
2019-01-20T22:33:02.246Z,79.02
2019-01-20T22:35:31.543Z,79.03
2019-01-20T22:38:00.938Z,79.28
2019-01-20T22:40:30.140Z,79.38
2019-01-20T22:43:00.491Z,79.36
2019-01-20T22:45:30.716Z,79.07
2019-01-20T22:48:00.110Z,79.47
2019-01-20T22:50:29.384Z,79.24
2019-01-20T22:52:58.560Z,79.24
2019-01-20T22:55:27.714Z,79.00
2019-01-20T22:58:00.941Z,79.07
2019-01-20T23:00:39.391Z,79.41
2019-01-20T23:03:08.635Z,79.16
2019-01-20T23:05:37.799Z,79.09
2019-01-20T23:08:06.949Z,79.24
2019-01-20T23:10:36.209Z,79.03
2019-01-20T23:13:05.581Z,79.13
2019-01-20T23:15:35.508Z,79.63
2019-01-20T23:18:05.198Z,79.68
2019-01-20T23:20:34.829Z,79.64
2019-01-20T23:23:04.130Z,79.44
2019-01-20T23:25:33.325Z,79.33
2019-01-20T23:28:02.879Z,79.33
2019-01-20T23:30:32.136Z,79.28
2019-01-20T23:33:02.315Z,79.30
2019-01-20T23:35:31.549Z,79.41
2019-01-20T23:38:00.705Z,79.31
2019-01-20T23:40:29.962Z,79.45
2019-01-20T23:42:59.088Z,79.29
2019-01-20T23:45:28.300Z,79.37
2019-01-20T23:47:57.485Z,79.82
2019-01-20T23:50:26.710Z,79.56
2019-01-20T23:52:55.832Z,79.70
2019-01-20T23:55:25.812Z,79.73
2019-01-20T23:57:55.057Z,79.52
